Time;durP1;ratioP1;P1;durP2;ratioP2;P2;SDS_P1;SDS_P2;PMS_P1;PMS_P2;Temp;Humidity;BMP_temperature;BMP_pressure;BME280_temperature;BME280_humidity;BME280_pressure;Samples;Min_cycle;Max_cycle;Signal;HPM_P1;HPM_P2
2022/08/14 00:01:47;;;;;;;2.45;1.27;;;;;;;;;;7388864;19;20088;-80
2022/08/14 00:04:13;;;;;;;3.17;0.98;;;;;;;;;;7387729;19;20355;-80
2022/08/14 00:06:38;;;;;;;3.10;1.42;;;;;;;;;;7385373;19;20018;-81
2022/08/14 00:09:03;;;;;;;2.03;1.35;;;;;;;;;;7394019;19;19998;-80
2022/08/14 00:11:29;;;;;;;0.80;0.80;;;;;;;;;;7393803;19;20529;-79
2022/08/14 00:13:54;;;;;;;1.58;1.05;;;;;;;;;;7386703;19;20353;-80
2022/08/14 00:16:19;;;;;;;1.33;1.20;;;;;;;;;;7385415;19;21221;-79
2022/08/14 00:18:45;;;;;;;2.33;1.38;;;;;;;;;;7386495;19;20062;-80
2022/08/14 00:21:10;;;;;;;1.38;1.20;;;;;;;;;;7387487;19;20018;-81
2022/08/14 00:23:36;;;;;;;2.97;1.15;;;;;;;;;;7388433;19;20014;-80
2022/08/14 00:26:01;;;;;;;1.50;1.30;;;;;;;;;;7388369;19;20022;-80
2022/08/14 00:28:27;;;;;;;1.48;1.38;;;;;;;;;;7391650;19;20432;-80
2022/08/14 00:30:56;;;;;;;6.25;1.30;;;;;;;;;;7393483;19;20720;-80
2022/08/14 00:33:22;;;;;;;2.33;1.13;;;;;;;;;;7393091;19;20006;-80
2022/08/14 00:35:47;;;;;;;3.80;1.27;;;;;;;;;;7388901;19;20027;-79
2022/08/14 00:38:13;;;;;;;3.55;1.70;;;;;;;;;;7394083;19;20074;-78
2022/08/14 00:40:38;;;;;;;2.25;1.20;;;;;;;;;;7390268;19;20021;-80
2022/08/14 00:43:03;;;;;;;1.65;1.23;;;;;;;;;;7394939;19;20016;-79
2022/08/14 00:45:29;;;;;;;2.95;1.85;;;;;;;;;;7394531;19;20029;-78
2022/08/14 00:47:54;;;;;;;1.63;1.35;;;;;;;;;;7396453;19;20022;-80
2022/08/14 00:50:21;;;;;;;1.67;1.38;;;;;;;;;;7392840;19;20352;-78
2022/08/14 00:52:51;;;;;;;2.15;1.30;;;;;;;;;;7396272;19;20015;-81
2022/08/14 00:55:18;;;;;;;1.30;1.20;;;;;;;;;;7389671;19;20014;-81
2022/08/14 00:57:44;;;;;;;3.67;1.42;;;;;;;;;;7395568;19;20364;-80
2022/08/14 01:00:14;;;;;;;3.08;1.50;;;;;;;;;;7392318;19;20006;-80
2022/08/14 01:02:43;;;;;;;1.15;1.05;;;;;;;;;;7393007;19;20326;-80
2022/08/14 01:05:22;;;;;;;1.80;1.33;;;;;;;;;;7389803;19;20010;-80
2022/08/14 01:07:50;;;;;;;4.47;1.70;;;;;;;;;;7395096;19;20003;-80
2022/08/14 01:10:16;;;;;;;4.00;1.65;;;;;;;;;;7395726;19;20023;-80
2022/08/14 01:12:42;;;;;;;3.35;1.35;;;;;;;;;;7396772;19;20002;-80
2022/08/14 01:15:07;;;;;;;2.72;1.60;;;;;;;;;;7393455;19;20461;-81
2022/08/14 01:23:04;;;;;;;1.00;1.00;;;;;;;;;;7396926;19;20159;-80
2022/08/14 01:25:29;;;;;;;1.88;1.42;;;;;;;;;;7396230;19;20003;-78
2022/08/14 01:27:56;;;;;;;3.05;1.23;;;;;;;;;;7388775;19;20013;-80
2022/08/14 01:30:25;;;;;;;1.80;1.30;;;;;;;;;;7396534;19;20010;-79
2022/08/14 01:32:51;;;;;;;1.92;1.13;;;;;;;;;;7412318;19;20038;-79
2022/08/14 01:35:16;;;;;;;1.90;1.42;;;;;;;;;;7397436;19;20007;-79
2022/08/14 01:37:47;;;;;;;2.65;1.30;;;;;;;;;;7382116;19;19999;-80
2022/08/14 01:40:13;;;;;;;1.30;1.20;;;;;;;;;;7384581;19;20003;-79
2022/08/14 01:42:41;;;;;;;4.22;1.52;;;;;;;;;;7385192;19;20063;-80
2022/08/14 01:45:11;;;;;;;1.75;1.30;;;;;;;;;;7383285;19;20013;-81
2022/08/14 01:47:37;;;;;;;1.35;1.25;;;;;;;;;;7384893;19;20007;-80
2022/08/14 01:50:05;;;;;;;1.50;1.40;;;;;;;;;;7384526;19;20018;-81
2022/08/14 01:52:35;;;;;;;1.60;1.50;;;;;;;;;;7403287;19;20051;-78
2022/08/14 01:55:07;;;;;;;1.23;1.10;;;;;;;;;;7411116;19;20714;-78
2022/08/14 01:57:36;;;;;;;1.88;1.52;;;;;;;;;;7412100;19;19998;-77
2022/08/14 02:00:05;;;;;;;1.10;0.90;;;;;;;;;;7411826;19;20010;-78
2022/08/14 02:02:30;;;;;;;1.58;1.42;;;;;;;;;;7415231;19;20043;-77
2022/08/14 02:04:56;;;;;;;3.05;1.27;;;;;;;;;;7400712;19;20363;-79
2022/08/14 02:07:21;;;;;;;1.65;1.27;;;;;;;;;;7387232;19;20486;-80
2022/08/14 02:09:47;;;;;;;2.28;1.52;;;;;;;;;;7383689;19;20007;-80
2022/08/14 02:12:12;;;;;;;1.38;1.27;;;;;;;;;;7384242;19;20027;-80
2022/08/14 02:14:39;;;;;;;2.15;1.70;;;;;;;;;;7383753;19;20026;-79
2022/08/14 02:17:08;;;;;;;1.88;1.27;;;;;;;;;;7385453;19;20014;-79
2022/08/14 02:19:34;;;;;;;1.95;1.33;;;;;;;;;;7382852;19;20010;-80
2022/08/14 02:22:02;;;;;;;1.48;1.30;;;;;;;;;;7385216;19;22263;-79
2022/08/14 02:24:29;;;;;;;3.97;1.67;;;;;;;;;;7384810;19;20006;-78
2022/08/14 02:26:56;;;;;;;2.28;1.50;;;;;;;;;;7384027;19;20035;-79
2022/08/14 02:29:24;;;;;;;1.27;1.17;;;;;;;;;;7389219;19;20023;-80
2022/08/14 02:31:53;;;;;;;1.50;1.40;;;;;;;;;;7389825;19;20035;-80
2022/08/14 02:34:30;;;;;;;1.40;1.25;;;;;;;;;;7389076;19;20071;-80
2022/08/14 02:37:01;;;;;;;2.75;1.58;;;;;;;;;;7388728;19;20014;-80
2022/08/14 02:39:27;;;;;;;1.63;1.52;;;;;;;;;;7390341;19;20007;-80
2022/08/14 02:41:52;;;;;;;2.15;1.50;;;;;;;;;;7383118;19;20010;-80
2022/08/14 02:44:20;;;;;;;3.05;1.40;;;;;;;;;;7381456;19;20022;-80
2022/08/14 02:46:46;;;;;;;4.70;1.50;;;;;;;;;;7382857;19;20011;-78
2022/08/14 02:49:11;;;;;;;2.35;1.35;;;;;;;;;;7382941;19;19998;-79
2022/08/14 02:51:38;;;;;;;2.45;1.60;;;;;;;;;;7380401;19;20013;-80
2022/08/14 02:54:06;;;;;;;1.48;1.30;;;;;;;;;;7384349;19;20454;-79
2022/08/14 02:56:32;;;;;;;2.65;1.30;;;;;;;;;;7382832;19;20010;-81
2022/08/14 02:59:00;;;;;;;1.75;1.17;;;;;;;;;;7386149;19;20729;-80
2022/08/14 03:01:27;;;;;;;1.38;1.20;;;;;;;;;;7383899;19;20017;-80
2022/08/14 03:03:54;;;;;;;3.38;1.50;;;;;;;;;;7379460;19;20008;-81
2022/08/14 03:06:24;;;;;;;2.13;1.70;;;;;;;;;;7384506;19;20015;-81
2022/08/14 03:08:52;;;;;;;1.80;1.20;;;;;;;;;;7383327;19;20126;-81
2022/08/14 03:11:18;;;;;;;1.55;1.08;;;;;;;;;;7384865;19;20039;-81
2022/08/14 03:13:46;;;;;;;1.38;1.27;;;;;;;;;;7383503;19;20538;-78
2022/08/14 03:16:14;;;;;;;1.67;1.20;;;;;;;;;;7380274;19;20110;-78
2022/08/14 03:18:45;;;;;;;2.83;1.55;;;;;;;;;;7381994;19;20376;-80
2022/08/14 03:21:14;;;;;;;1.33;1.23;;;;;;;;;;7384700;19;20049;-81
2022/08/14 03:23:41;;;;;;;2.15;1.38;;;;;;;;;;7388460;19;20017;-81
2022/08/14 03:26:08;;;;;;;1.45;1.27;;;;;;;;;;7386807;19;19999;-80
2022/08/14 03:28:34;;;;;;;1.50;1.20;;;;;;;;;;7385075;19;20393;-81
2022/08/14 03:30:59;;;;;;;2.20;1.52;;;;;;;;;;7383962;19;20003;-80
2022/08/14 03:33:26;;;;;;;5.80;1.58;;;;;;;;;;7383629;19;20007;-80
2022/08/14 03:35:52;;;;;;;1.98;1.33;;;;;;;;;;7385026;19;20447;-82
2022/08/14 03:38:17;;;;;;;1.88;1.48;;;;;;;;;;7385107;19;20799;-82
2022/08/14 03:40:45;;;;;;;1.60;1.50;;;;;;;;;;7385831;19;20014;-80
2022/08/14 03:43:11;;;;;;;2.70;1.20;;;;;;;;;;7389097;19;20118;-81
2022/08/14 03:45:39;;;;;;;2.03;1.63;;;;;;;;;;7386000;19;20154;-80
2022/08/14 03:48:18;;;;;;;1.67;1.58;;;;;;;;;;7390269;19;20450;-81
2022/08/14 03:50:50;;;;;;;1.95;1.60;;;;;;;;;;7389430;19;20407;-80
2022/08/14 03:53:17;;;;;;;2.85;1.80;;;;;;;;;;7387559;19;20031;-80
2022/08/14 03:55:42;;;;;;;2.08;1.38;;;;;;;;;;7388717;19;20551;-80
2022/08/14 03:58:08;;;;;;;3.85;1.52;;;;;;;;;;7390555;19;20018;-80
2022/08/14 04:00:35;;;;;;;2.95;1.90;;;;;;;;;;7389498;19;20018;-80
2022/08/14 04:03:03;;;;;;;1.85;1.50;;;;;;;;;;7389525;19;20560;-80
2022/08/14 04:05:28;;;;;;;3.28;2.00;;;;;;;;;;7389323;19;20022;-81
2022/08/14 04:07:53;;;;;;;2.35;1.90;;;;;;;;;;7384782;19;21735;-78
2022/08/14 04:10:19;;;;;;;1.60;1.50;;;;;;;;;;7389182;19;20028;-80
2022/08/14 04:12:44;;;;;;;1.42;1.30;;;;;;;;;;7384929;19;20154;-79
2022/08/14 04:15:10;;;;;;;2.38;1.65;;;;;;;;;;7387384;19;21802;-78
2022/08/14 04:17:36;;;;;;;1.80;1.23;;;;;;;;;;7388282;19;20118;-78
2022/08/14 04:20:04;;;;;;;2.20;1.70;;;;;;;;;;7385221;19;20058;-78
2022/08/14 04:22:31;;;;;;;3.55;1.65;;;;;;;;;;7383944;19;20011;-78
2022/08/14 04:24:58;;;;;;;1.90;1.50;;;;;;;;;;7387022;19;20763;-78
2022/08/14 04:27:25;;;;;;;1.48;1.35;;;;;;;;;;7392414;19;20466;-78
2022/08/14 04:29:51;;;;;;;3.50;1.80;;;;;;;;;;7392590;19;20106;-78
2022/08/14 04:32:18;;;;;;;1.90;1.40;;;;;;;;;;7387293;19;20093;-76
2022/08/14 04:34:43;;;;;;;2.05;1.52;;;;;;;;;;7384460;19;20697;-78
2022/08/14 04:45:24;;;;;;;3.58;1.38;;;;;;;;;;7394234;19;20561;-78
2022/08/14 04:50:36;;;;;;;1.85;1.30;;;;;;;;;;7387555;19;20017;-79
2022/08/14 04:53:02;;;;;;;2.45;1.63;;;;;;;;;;7382579;19;20684;-78
2022/08/14 04:55:28;;;;;;;1.50;1.40;;;;;;;;;;7393526;19;20014;-78
2022/08/14 04:57:54;;;;;;;1.33;1.15;;;;;;;;;;7385901;19;20062;-79
2022/08/14 05:00:21;;;;;;;1.60;1.35;;;;;;;;;;7382113;19;21124;-78
2022/08/14 05:02:47;;;;;;;1.60;1.48;;;;;;;;;;7382354;19;20003;-78
2022/08/14 05:05:12;;;;;;;3.95;1.60;;;;;;;;;;7378632;19;20018;-78
2022/08/14 05:07:38;;;;;;;10.90;2.13;;;;;;;;;;7385978;19;20013;-79
2022/08/14 05:10:04;;;;;;;2.67;1.50;;;;;;;;;;7382759;19;20465;-78
2022/08/14 05:12:30;;;;;;;3.30;1.40;;;;;;;;;;7384260;19;20015;-78
2022/08/14 05:14:55;;;;;;;1.85;1.60;;;;;;;;;;7385704;19;20014;-78
2022/08/14 05:17:24;;;;;;;2.42;1.60;;;;;;;;;;7392956;19;19999;-76
2022/08/14 05:19:50;;;;;;;1.50;1.30;;;;;;;;;;7386269;19;20340;-76
2022/08/14 05:22:15;;;;;;;2.00;1.80;;;;;;;;;;7384970;19;20106;-77
2022/08/14 05:24:40;;;;;;;3.28;1.70;;;;;;;;;;7380743;19;20051;-77
2022/08/14 05:27:06;;;;;;;3.00;1.90;;;;;;;;;;7383264;19;20038;-77
2022/08/14 05:29:31;;;;;;;2.20;2.00;;;;;;;;;;7386610;19;20003;-77
2022/08/14 05:31:57;;;;;;;2.90;1.55;;;;;;;;;;7382897;19;20011;-77
2022/08/14 05:34:22;;;;;;;2.25;1.73;;;;;;;;;;7382098;19;20018;-77
2022/08/14 05:36:48;;;;;;;2.67;1.88;;;;;;;;;;7389142;19;20006;-76
2022/08/14 05:39:13;;;;;;;3.60;1.83;;;;;;;;;;7388687;19;22439;-76
2022/08/14 05:41:39;;;;;;;3.40;1.70;;;;;;;;;;7381534;19;20045;-77
2022/08/14 05:44:04;;;;;;;1.90;1.63;;;;;;;;;;7383998;19;20027;-77
2022/08/14 05:46:30;;;;;;;7.32;2.13;;;;;;;;;;7385425;19;20009;-77
2022/08/14 05:48:57;;;;;;;3.70;1.85;;;;;;;;;;7383822;19;20018;-77
2022/08/14 05:51:25;;;;;;;3.55;2.08;;;;;;;;;;7390693;19;20011;-77
2022/08/14 05:53:50;;;;;;;2.85;1.92;;;;;;;;;;7386453;19;20039;-77
2022/08/14 05:56:16;;;;;;;2.50;1.98;;;;;;;;;;7384136;19;20015;-76
2022/08/14 05:58:41;;;;;;;2.60;2.03;;;;;;;;;;7358273;19;20007;-76
2022/08/14 06:01:08;;;;;;;5.43;2.50;;;;;;;;;;7381856;19;20457;-77
2022/08/14 06:03:33;;;;;;;2.83;2.20;;;;;;;;;;7383251;19;20103;-77
2022/08/14 06:06:02;;;;;;;4.30;3.22;;;;;;;;;;7380095;19;20090;-76
2022/08/14 06:08:30;;;;;;;3.42;2.58;;;;;;;;;;7387032;19;20382;-77
2022/08/14 06:11:02;;;;;;;5.55;2.60;;;;;;;;;;7384963;19;20035;-77
2022/08/14 06:13:29;;;;;;;4.38;2.30;;;;;;;;;;7388936;19;20348;-77
2022/08/14 06:15:54;;;;;;;4.25;2.35;;;;;;;;;;7382066;19;20014;-78
2022/08/14 06:18:19;;;;;;;3.03;2.30;;;;;;;;;;7385312;19;20019;-77
2022/08/14 06:20:45;;;;;;;2.90;2.30;;;;;;;;;;7378846;19;20202;-79
2022/08/14 06:23:11;;;;;;;4.80;2.80;;;;;;;;;;7374275;19;20010;-79
2022/08/14 06:25:36;;;;;;;4.50;2.85;;;;;;;;;;7380271;19;20002;-78
2022/08/14 06:28:02;;;;;;;2.85;2.10;;;;;;;;;;7375510;19;20006;-78
2022/08/14 06:30:31;;;;;;;4.53;2.25;;;;;;;;;;7381152;19;20070;-77
2022/08/14 06:32:58;;;;;;;2.38;2.17;;;;;;;;;;7382607;19;20014;-78
2022/08/14 06:35:23;;;;;;;3.08;2.13;;;;;;;;;;7383482;19;20493;-77
2022/08/14 06:37:50;;;;;;;2.60;2.38;;;;;;;;;;7384625;19;20135;-77
2022/08/14 06:40:19;;;;;;;2.47;2.28;;;;;;;;;;7378393;19;20078;-77
2022/08/14 06:42:44;;;;;;;2.78;2.47;;;;;;;;;;7374631;19;20035;-77
2022/08/14 06:45:10;;;;;;;3.85;2.80;;;;;;;;;;7375564;19;20011;-77
2022/08/14 06:47:37;;;;;;;2.83;2.30;;;;;;;;;;7381173;19;20019;-77
2022/08/14 06:50:04;;;;;;;3.80;2.65;;;;;;;;;;7384402;19;20053;-80
2022/08/14 06:52:30;;;;;;;3.47;2.17;;;;;;;;;;7377299;19;20014;-80
2022/08/14 06:54:56;;;;;;;3.25;2.22;;;;;;;;;;7385030;19;20018;-78
2022/08/14 06:57:23;;;;;;;3.45;2.30;;;;;;;;;;7380108;19;20025;-77
2022/08/14 06:59:48;;;;;;;2.95;2.17;;;;;;;;;;7369162;19;20013;-78
2022/08/14 07:07:41;;;;;;;4.55;2.10;;;;;;;;;;7377077;19;20013;-78
2022/08/14 07:10:08;;;;;;;2.83;1.98;;;;;;;;;;7384033;19;20398;-77
2022/08/14 07:12:34;;;;;;;6.97;2.20;;;;;;;;;;7379643;19;20555;-77
2022/08/14 07:14:59;;;;;;;2.88;2.10;;;;;;;;;;7377899;19;20011;-77
2022/08/14 07:17:25;;;;;;;3.22;2.10;;;;;;;;;;7384620;19;20011;-77
2022/08/14 07:19:51;;;;;;;3.45;2.22;;;;;;;;;;7382973;19;20025;-76
2022/08/14 07:22:16;;;;;;;2.95;2.13;;;;;;;;;;7385880;19;20625;-77
2022/08/14 07:24:41;;;;;;;3.42;2.60;;;;;;;;;;7382171;19;20007;-76
2022/08/14 07:27:07;;;;;;;2.38;1.98;;;;;;;;;;7384684;19;20007;-78
2022/08/14 07:29:32;;;;;;;2.63;2.13;;;;;;;;;;7388480;19;20197;-78
2022/08/14 07:31:57;;;;;;;5.15;2.67;;;;;;;;;;7386024;19;20018;-78
2022/08/14 07:34:23;;;;;;;6.88;2.38;;;;;;;;;;7388091;19;20020;-78
2022/08/14 07:36:48;;;;;;;2.03;1.70;;;;;;;;;;7377193;19;20115;-79
2022/08/14 07:39:13;;;;;;;5.55;1.67;;;;;;;;;;7386911;19;20010;-80
2022/08/14 07:41:39;;;;;;;1.63;1.52;;;;;;;;;;7395710;19;20015;-79
2022/08/14 07:44:05;;;;;;;2.00;1.73;;;;;;;;;;7396344;19;20002;-78
2022/08/14 07:46:32;;;;;;;3.92;1.20;;;;;;;;;;7394046;19;20009;-78
2022/08/14 07:48:58;;;;;;;2.40;1.48;;;;;;;;;;7390504;19;19999;-80
2022/08/14 07:51:23;;;;;;;1.67;1.58;;;;;;;;;;7390045;19;20043;-79
2022/08/14 07:53:49;;;;;;;2.05;1.35;;;;;;;;;;7396560;19;20395;-79
2022/08/14 07:56:16;;;;;;;3.15;1.35;;;;;;;;;;7394691;19;20015;-79
2022/08/14 07:58:41;;;;;;;2.83;1.38;;;;;;;;;;7395201;19;20045;-79
2022/08/14 08:01:08;;;;;;;2.60;1.15;;;;;;;;;;7398128;19;20397;-78
2022/08/14 08:03:34;;;;;;;3.28;1.13;;;;;;;;;;7395937;19;20044;-80
2022/08/14 08:06:01;;;;;;;3.63;1.40;;;;;;;;;;7388268;19;20752;-79
2022/08/14 08:08:29;;;;;;;1.77;1.00;;;;;;;;;;7394484;19;19995;-77
2022/08/14 08:10:55;;;;;;;1.90;1.33;;;;;;;;;;7397397;19;20010;-80
2022/08/14 08:13:21;;;;;;;1.10;1.00;;;;;;;;;;7391472;19;20079;-79
2022/08/14 08:15:58;;;;;;;1.25;1.10;;;;;;;;;;7386854;19;20480;-80
2022/08/14 08:18:24;;;;;;;1.83;1.20;;;;;;;;;;7392447;19;20014;-78
2022/08/14 08:20:52;;;;;;;1.35;0.98;;;;;;;;;;7391187;19;20011;-79
2022/08/14 08:23:25;;;;;;;1.05;0.90;;;;;;;;;;7398722;19;20353;-81
2022/08/14 08:25:51;;;;;;;1.38;1.10;;;;;;;;;;7398269;19;20018;-80
2022/08/14 08:28:22;;;;;;;2.75;1.20;;;;;;;;;;7394856;19;20035;-80
2022/08/14 08:31:00;;;;;;;1.02;0.98;;;;;;;;;;7389852;19;20732;-77
2022/08/14 08:33:29;;;;;;;1.27;1.10;;;;;;;;;;7394492;19;20010;-78
2022/08/14 08:35:59;;;;;;;1.20;1.10;;;;;;;;;;7392462;19;20015;-78
2022/08/14 08:38:27;;;;;;;2.10;1.08;;;;;;;;;;7393057;19;20054;-79
2022/08/14 08:40:58;;;;;;;0.95;0.95;;;;;;;;;;7386392;19;20082;-80
2022/08/14 08:43:27;;;;;;;1.27;1.00;;;;;;;;;;7387217;19;20022;-83
2022/08/14 08:45:59;;;;;;;1.83;1.00;;;;;;;;;;7395945;19;20038;-79
2022/08/14 08:48:28;;;;;;;2.78;1.00;;;;;;;;;;7394134;19;20346;-78
2022/08/14 08:50:55;;;;;;;0.98;0.90;;;;;;;;;;7349169;19;20101;-78
2022/08/14 08:53:21;;;;;;;1.38;1.02;;;;;;;;;;7394919;19;20009;-78
2022/08/14 08:55:46;;;;;;;1.80;1.02;;;;;;;;;;7390803;19;20346;-78
2022/08/14 08:58:18;;;;;;;1.90;1.30;;;;;;;;;;7398147;19;20509;-78
2022/08/14 09:00:48;;;;;;;1.15;1.05;;;;;;;;;;7398956;19;20006;-79
2022/08/14 09:03:19;;;;;;;1.40;1.30;;;;;;;;;;7390912;19;19999;-77
2022/08/14 09:05:58;;;;;;;1.30;1.08;;;;;;;;;;7392558;19;20041;-79
2022/08/14 09:08:26;;;;;;;1.40;1.20;;;;;;;;;;7388555;19;20021;-78
2022/08/14 09:10:53;;;;;;;0.93;0.93;;;;;;;;;;7388327;19;20006;-78
2022/08/14 09:13:25;;;;;;;3.38;1.13;;;;;;;;;;7396488;19;20585;-78
2022/08/14 09:15:51;;;;;;;3.25;1.15;;;;;;;;;;7392798;19;20414;-78
2022/08/14 09:18:18;;;;;;;3.53;1.10;;;;;;;;;;7385630;19;20014;-78
2022/08/14 09:20:49;;;;;;;2.42;0.98;;;;;;;;;;7397363;19;20021;-77
2022/08/14 09:23:15;;;;;;;2.35;1.10;;;;;;;;;;7399850;19;19998;-78
2022/08/14 09:25:43;;;;;;;2.85;1.27;;;;;;;;;;7395025;19;20014;-77
2022/08/14 09:28:11;;;;;;;2.92;1.35;;;;;;;;;;7389672;19;20021;-77
2022/08/14 09:30:49;;;;;;;1.27;1.00;;;;;;;;;;7391444;19;20007;-77
2022/08/14 09:33:39;;;;;;;1.00;0.90;;;;;;;;;;7390003;19;20010;-77
2022/08/14 09:36:32;;;;;;;3.67;1.20;;;;;;;;;;7389709;19;20011;-77
2022/08/14 09:39:06;;;;;;;1.33;1.20;;;;;;;;;;7393496;19;20014;-77
2022/08/14 09:41:53;;;;;;;1.48;1.02;;;;;;;;;;7394223;19;20018;-77
2022/08/14 09:44:30;;;;;;;1.17;1.10;;;;;;;;;;7389905;19;20134;-77
2022/08/14 09:47:16;;;;;;;1.52;1.25;;;;;;;;;;7391008;19;20383;-77
2022/08/14 09:49:42;;;;;;;1.90;1.20;;;;;;;;;;7389974;19;20079;-76
2022/08/14 09:52:15;;;;;;;1.10;1.00;;;;;;;;;;7386842;19;20025;-76
2022/08/14 09:54:46;;;;;;;1.38;0.90;;;;;;;;;;7384126;19;20011;-76
2022/08/14 09:57:24;;;;;;;1.80;1.20;;;;;;;;;;7382469;19;20011;-76
2022/08/14 09:59:51;;;;;;;3.38;1.10;;;;;;;;;;7386251;19;20031;-77
2022/08/14 10:02:20;;;;;;;2.72;1.30;;;;;;;;;;7387798;19;20022;-76
2022/08/14 10:04:57;;;;;;;1.67;1.20;;;;;;;;;;7384506;19;20018;-76
2022/08/14 10:07:30;;;;;;;2.47;1.00;;;;;;;;;;7393591;19;20376;-76
2022/08/14 10:09:56;;;;;;;1.55;1.20;;;;;;;;;;7388601;19;20013;-77
2022/08/14 10:12:21;;;;;;;1.85;1.20;;;;;;;;;;7389990;19;20623;-76
2022/08/14 10:14:46;;;;;;;1.92;1.20;;;;;;;;;;7389535;19;20473;-76
2022/08/14 10:17:25;;;;;;;2.15;1.30;;;;;;;;;;7389638;19;20019;-76
2022/08/14 10:19:51;;;;;;;1.30;1.20;;;;;;;;;;7392254;19;20336;-76
2022/08/14 10:22:27;;;;;;;1.35;1.15;;;;;;;;;;7379245;19;20010;-76
2022/08/14 10:24:52;;;;;;;1.20;1.10;;;;;;;;;;7382201;19;20122;-76
2022/08/14 10:27:22;;;;;;;1.23;1.13;;;;;;;;;;7383885;19;20054;-76
2022/08/14 10:29:50;;;;;;;1.20;1.10;;;;;;;;;;7383296;19;20017;-76
2022/08/14 10:32:15;;;;;;;3.38;1.40;;;;;;;;;;7380004;19;20017;-76
2022/08/14 10:34:41;;;;;;;1.50;1.40;;;;;;;;;;7384232;19;20007;-76
2022/08/14 10:37:12;;;;;;;1.40;1.30;;;;;;;;;;7386038;19;20027;-76
2022/08/14 10:39:39;;;;;;;1.48;1.38;;;;;;;;;;7385896;19;20019;-76
2022/08/14 10:42:07;;;;;;;1.30;1.20;;;;;;;;;;7389641;19;20103;-76
2022/08/14 10:44:37;;;;;;;2.78;1.35;;;;;;;;;;7387481;19;20006;-76
2022/08/14 10:47:08;;;;;;;1.23;1.13;;;;;;;;;;7391051;19;20009;-77
2022/08/14 10:49:34;;;;;;;1.30;1.20;;;;;;;;;;7385820;19;20090;-76
2022/08/14 10:52:04;;;;;;;1.58;1.27;;;;;;;;;;7389380;19;20027;-76
2022/08/14 10:54:32;;;;;;;1.15;1.10;;;;;;;;;;7385369;19;20496;-76
2022/08/14 10:57:23;;;;;;;1.42;1.33;;;;;;;;;;7390511;19;20010;-76
2022/08/14 11:00:00;;;;;;;1.45;1.20;;;;;;;;;;7388168;19;19995;-76
2022/08/14 11:02:30;;;;;;;2.75;1.60;;;;;;;;;;7386080;19;20052;-76
2022/08/14 11:05:16;;;;;;;1.42;1.33;;;;;;;;;;7388042;19;20006;-76
2022/08/14 11:08:02;;;;;;;1.40;1.30;;;;;;;;;;7393319;19;20010;-76
2022/08/14 11:10:46;;;;;;;2.00;1.38;;;;;;;;;;7404649;19;20011;-76
2022/08/14 11:13:23;;;;;;;1.30;1.20;;;;;;;;;;7403729;19;20139;-76
2022/08/14 11:15:49;;;;;;;1.70;1.40;;;;;;;;;;7401629;19;19994;-76
2022/08/14 11:18:16;;;;;;;1.75;1.33;;;;;;;;;;7401365;19;20006;-76
2022/08/14 11:20:48;;;;;;;1.48;1.20;;;;;;;;;;7404455;19;20013;-76
2022/08/14 11:23:16;;;;;;;3.13;1.55;;;;;;;;;;7400206;19;20006;-76
2022/08/14 11:25:44;;;;;;;1.30;1.20;;;;;;;;;;7404777;19;20031;-76
2022/08/14 11:28:12;;;;;;;1.65;1.35;;;;;;;;;;7401997;19;20006;-76
2022/08/14 11:30:41;;;;;;;1.40;1.17;;;;;;;;;;7404226;19;20010;-76
2022/08/14 11:33:07;;;;;;;1.77;1.45;;;;;;;;;;7400438;19;20095;-76
2022/08/14 11:35:32;;;;;;;1.58;1.45;;;;;;;;;;7402386;19;20010;-76
2022/08/14 11:38:00;;;;;;;5.57;1.90;;;;;;;;;;7399240;19;21370;-76
2022/08/14 11:40:28;;;;;;;1.80;1.63;;;;;;;;;;7402648;19;20692;-76
2022/08/14 11:42:56;;;;;;;1.40;1.30;;;;;;;;;;7400007;19;20531;-76
2022/08/14 11:45:31;;;;;;;3.13;1.30;;;;;;;;;;7401057;19;20010;-76
2022/08/14 11:47:57;;;;;;;;;;;;;;;;;;7401940;19;20031;-76
2022/08/14 11:50:26;;;;;;;1.48;1.38;;;;;;;;;;7400294;19;19922;-76
2022/08/14 11:52:52;;;;;;;1.88;1.65;;;;;;;;;;7399646;19;20042;-76
2022/08/14 11:55:18;;;;;;;2.22;1.40;;;;;;;;;;7400034;19;20474;-76
2022/08/14 11:57:44;;;;;;;130.43;57.30;;;;;;;;;;7403982;19;20061;-76
2022/08/14 12:00:15;;;;;;;37.03;20.70;;;;;;;;;;7401313;19;20466;-77
2022/08/14 12:02:53;;;;;;;13.88;7.97;;;;;;;;;;7402605;19;20002;-76
2022/08/14 12:05:51;;;;;;;8.23;3.85;;;;;;;;;;7399324;19;20007;-76
2022/08/14 12:08:16;;;;;;;2.60;2.20;;;;;;;;;;7397784;19;20005;-77
2022/08/14 12:10:42;;;;;;;1.92;1.73;;;;;;;;;;7402233;19;20002;-77
2022/08/14 12:13:17;;;;;;;2.65;1.52;;;;;;;;;;7400575;19;20386;-76
2022/08/14 12:15:45;;;;;;;1.50;1.40;;;;;;;;;;7401295;19;20380;-76
2022/08/14 12:18:11;;;;;;;1.38;1.27;;;;;;;;;;7399944;19;20010;-76
2022/08/14 12:20:38;;;;;;;2.58;1.48;;;;;;;;;;7395083;19;20011;-77
2022/08/14 12:23:06;;;;;;;3.15;1.50;;;;;;;;;;7395426;19;20034;-76
2022/08/14 12:25:32;;;;;;;1.85;1.48;;;;;;;;;;7392398;19;20020;-76
2022/08/14 12:28:04;;;;;;;4.82;1.60;;;;;;;;;;7390282;19;20045;-77
2022/08/14 12:30:41;;;;;;;1.60;1.50;;;;;;;;;;7391822;19;20074;-76
2022/08/14 12:33:31;;;;;;;1.50;1.40;;;;;;;;;;7393494;19;19999;-76
2022/08/14 12:36:03;;;;;;;2.88;1.63;;;;;;;;;;7391653;19;20010;-76
2022/08/14 12:38:36;;;;;;;2.45;2.00;;;;;;;;;;7389597;19;20152;-77
2022/08/14 12:41:08;;;;;;;1.80;1.30;;;;;;;;;;7395411;19;20014;-77
2022/08/14 12:43:47;;;;;;;1.73;1.50;;;;;;;;;;7398633;19;20003;-77
2022/08/14 12:46:41;;;;;;;1.65;1.25;;;;;;;;;;7398851;19;20031;-77
2022/08/14 12:49:15;;;;;;;2.67;1.40;;;;;;;;;;7394768;19;20018;-77
2022/08/14 12:51:42;;;;;;;3.40;1.67;;;;;;;;;;7399953;19;20013;-77
2022/08/14 12:54:13;;;;;;;2.38;1.45;;;;;;;;;;7394704;19;20387;-77
2022/08/14 12:56:39;;;;;;;1.50;1.13;;;;;;;;;;7395092;19;20493;-77
2022/08/14 12:59:04;;;;;;;1.65;1.30;;;;;;;;;;7396866;19;19999;-77
2022/08/14 13:01:31;;;;;;;1.65;1.30;;;;;;;;;;7398422;19;20005;-77
2022/08/14 13:04:17;;;;;;;1.55;1.45;;;;;;;;;;7396033;19;20006;-77
2022/08/14 13:06:45;;;;;;;1.30;1.20;;;;;;;;;;7397147;19;20010;-77
2022/08/14 13:09:12;;;;;;;1.67;1.40;;;;;;;;;;7397448;19;20002;-77
2022/08/14 13:11:43;;;;;;;1.70;1.55;;;;;;;;;;7395678;19;20140;-78
2022/08/14 13:14:14;;;;;;;1.50;1.40;;;;;;;;;;7393100;19;20005;-76
2022/08/14 13:16:41;;;;;;;1.65;1.42;;;;;;;;;;7393106;19;20066;-76
2022/08/14 13:19:11;;;;;;;2.13;1.10;;;;;;;;;;7390490;19;20006;-76
2022/08/14 13:21:38;;;;;;;1.50;1.40;;;;;;;;;;7394399;19;20028;-76
2022/08/14 13:24:04;;;;;;;1.77;1.17;;;;;;;;;;7389219;19;20031;-76
2022/08/14 13:26:31;;;;;;;1.50;1.40;;;;;;;;;;7393399;19;20113;-76
2022/08/14 13:28:59;;;;;;;1.67;1.58;;;;;;;;;;7390021;19;20014;-77
2022/08/14 13:31:26;;;;;;;1.58;1.48;;;;;;;;;;7391142;19;20036;-76
2022/08/14 13:33:52;;;;;;;2.83;1.40;;;;;;;;;;7387957;19;20092;-77
2022/08/14 13:36:17;;;;;;;1.10;1.00;;;;;;;;;;7390938;19;20030;-77
2022/08/14 13:38:43;;;;;;;1.40;1.30;;;;;;;;;;7391467;19;20505;-76
2022/08/14 13:41:10;;;;;;;1.50;1.40;;;;;;;;;;7391438;19;20334;-77
2022/08/14 13:43:39;;;;;;;1.35;1.25;;;;;;;;;;7390299;19;20070;-76
2022/08/14 13:46:05;;;;;;;2.15;1.40;;;;;;;;;;7391758;19;20303;-76
2022/08/14 13:48:31;;;;;;;1.60;1.50;;;;;;;;;;7388663;19;20077;-76
2022/08/14 13:50:58;;;;;;;1.50;1.40;;;;;;;;;;7392308;19;20042;-77
2022/08/14 13:53:24;;;;;;;1.58;1.30;;;;;;;;;;7389694;19;20786;-77
2022/08/14 13:55:52;;;;;;;1.50;1.40;;;;;;;;;;7388541;19;20023;-76
2022/08/14 13:58:20;;;;;;;1.63;1.30;;;;;;;;;;7389550;19;20026;-77
2022/08/14 14:00:46;;;;;;;1.30;1.20;;;;;;;;;;7389200;19;20332;-76
2022/08/14 14:03:12;;;;;;;1.83;1.40;;;;;;;;;;7390635;19;20422;-77
2022/08/14 14:05:38;;;;;;;1.85;1.50;;;;;;;;;;7392985;19;20350;-76
2022/08/14 14:08:04;;;;;;;1.40;1.30;;;;;;;;;;7390334;19;20001;-76
2022/08/14 14:10:34;;;;;;;2.92;1.40;;;;;;;;;;7390811;19;20465;-77
2022/08/14 14:13:01;;;;;;;1.45;1.35;;;;;;;;;;7391446;19;20446;-77
2022/08/14 14:15:26;;;;;;;1.65;1.33;;;;;;;;;;7387641;19;20048;-77
2022/08/14 14:17:52;;;;;;;1.58;1.48;;;;;;;;;;7389732;19;20006;-77
2022/08/14 14:20:19;;;;;;;1.67;1.42;;;;;;;;;;7390928;19;20470;-77
2022/08/14 14:22:46;;;;;;;1.58;1.45;;;;;;;;;;7388206;19;20377;-77
2022/08/14 14:25:13;;;;;;;1.60;1.50;;;;;;;;;;7389491;19;20066;-77
2022/08/14 14:27:47;;;;;;;1.58;1.40;;;;;;;;;;7391634;19;20011;-77
2022/08/14 14:30:14;;;;;;;1.42;1.20;;;;;;;;;;7390867;19;19995;-77
2022/08/14 14:32:43;;;;;;;3.60;1.63;;;;;;;;;;7390354;19;20031;-77
2022/08/14 14:35:13;;;;;;;1.83;1.40;;;;;;;;;;7390008;19;20034;-77
2022/08/14 14:37:39;;;;;;;2.70;1.50;;;;;;;;;;7391787;19;20025;-77
2022/08/14 14:40:05;;;;;;;1.50;1.30;;;;;;;;;;7390090;19;20061;-77
2022/08/14 14:42:33;;;;;;;1.40;1.30;;;;;;;;;;7388467;19;20026;-77
2022/08/14 14:45:13;;;;;;;1.45;1.30;;;;;;;;;;7381190;19;20015;-77
2022/08/14 14:47:43;;;;;;;1.65;1.50;;;;;;;;;;7380764;19;20011;-76
2022/08/14 14:50:10;;;;;;;2.03;1.35;;;;;;;;;;7385362;19;20127;-77
2022/08/14 14:52:36;;;;;;;1.90;1.60;;;;;;;;;;7389080;19;20066;-77
2022/08/14 14:55:04;;;;;;;2.63;1.30;;;;;;;;;;7389465;19;20029;-77
2022/08/14 14:57:29;;;;;;;3.72;1.95;;;;;;;;;;7392545;19;20003;-78
2022/08/14 14:59:55;;;;;;;1.58;1.30;;;;;;;;;;7386823;19;20005;-78
2022/08/14 15:02:34;;;;;;;1.38;1.27;;;;;;;;;;7387803;19;20037;-78
2022/08/14 15:05:00;;;;;;;2.13;1.38;;;;;;;;;;7390190;19;20050;-77
2022/08/14 15:07:25;;;;;;;1.55;1.45;;;;;;;;;;7382296;19;20019;-78
2022/08/14 15:09:51;;;;;;;1.63;1.52;;;;;;;;;;7388554;19;20545;-78
2022/08/14 15:12:16;;;;;;;1.67;1.20;;;;;;;;;;7393489;19;20601;-78